Time;durP1;ratioP1;P1;durP2;ratioP2;P2;SDS_P1;SDS_P2;PMS_P1;PMS_P2;Temp;Humidity;BMP_temperature;BMP_pressure;BME280_temperature;BME280_humidity;BME280_pressure;Samples;Min_cycle;Max_cycle;Signal;HPM_P1;HPM_P2
2023/06/06 00:01:46;;;;;;;3.60;1.50;;;;;;;17.26;37.85;101669.41;107417;1254;97726;-60
2023/06/06 00:04:14;;;;;;;3.10;1.30;;;;;;;17.19;38.10;101666.72;107418;1253;112210;-62
2023/06/06 00:06:44;;;;;;;5.70;1.40;;;;;;;17.08;38.84;101667.13;107437;1254;110206;-62
2023/06/06 00:09:12;;;;;;;4.80;1.20;;;;;;;17.01;38.68;101670.68;107415;1253;108624;-59
2023/06/06 00:11:40;;;;;;;4.30;1.40;;;;;;;16.96;38.54;101669.20;107393;1254;97938;-61
2023/06/06 00:14:09;;;;;;;9.50;1.60;;;;;;;16.91;38.41;101671.33;107425;1254;98504;-60
2023/06/06 00:16:38;;;;;;;3.30;1.50;;;;;;;16.85;38.98;101670.33;107452;1257;110271;-59
2023/06/06 00:19:06;;;;;;;8.30;1.90;;;;;;;16.82;39.39;101672.27;107449;1254;109703;-61
2023/06/06 00:21:36;;;;;;;4.30;1.50;;;;;;;16.78;39.67;101673.38;107440;1257;107557;-59
2023/06/06 00:24:04;;;;;;;8.10;2.50;;;;;;;16.74;40.05;101674.96;107455;1254;98034;-60
2023/06/06 00:26:33;;;;;;;5.20;1.80;;;;;;;16.74;39.98;101675.59;107481;1254;98219;-59
2023/06/06 00:29:02;;;;;;;5.70;1.60;;;;;;;16.72;40.17;101671.08;107391;1257;111853;-60
2023/06/06 00:31:30;;;;;;;7.90;1.50;;;;;;;16.70;40.36;101672.13;107432;1254;109175;-60
2023/06/06 00:33:59;;;;;;;8.00;1.70;;;;;;;16.70;40.30;101669.14;107409;1254;107581;-62
2023/06/06 00:36:27;;;;;;;3.90;1.80;;;;;;;16.69;40.52;101669.02;107431;1254;97841;-61
2023/06/06 00:38:55;;;;;;;4.80;1.60;;;;;;;16.67;40.52;101666.48;107402;1254;97726;-60
2023/06/06 00:41:25;;;;;;;4.20;1.20;;;;;;;16.63;40.67;101666.69;107428;1254;111599;-60
2023/06/06 00:43:54;;;;;;;3.10;1.70;;;;;;;16.60;40.31;101663.77;107394;1254;108706;-60
2023/06/06 00:46:23;;;;;;;8.00;1.50;;;;;;;16.57;39.87;101663.30;107473;1254;107776;-61
2023/06/06 00:48:51;;;;;;;2.10;1.40;;;;;;;16.56;40.47;101660.88;107380;1257;97852;-62
2023/06/06 00:51:20;;;;;;;19.40;2.10;;;;;;;16.54;40.82;101662.86;107393;1254;98334;-60
2023/06/06 00:53:49;;;;;;;5.90;1.30;;;;;;;16.52;41.58;101658.23;107416;1254;112009;-61
2023/06/06 00:56:19;;;;;;;8.80;2.20;;;;;;;16.49;41.57;101653.41;107489;1253;110318;-60
2023/06/06 00:58:48;;;;;;;10.10;1.70;;;;;;;16.46;41.84;101654.45;107428;1257;108742;-60
2023/06/06 01:01:16;;;;;;;7.00;1.60;;;;;;;16.43;41.79;101659.28;107309;1254;97856;-60
2023/06/06 01:03:46;;;;;;;4.70;2.00;;;;;;;16.39;41.95;101659.25;107412;1254;97910;-61
2023/06/06 01:06:16;;;;;;;4.60;1.60;;;;;;;16.34;42.21;101659.23;107447;1254;111617;-62
2023/06/06 01:08:46;;;;;;;4.60;1.70;;;;;;;16.29;42.22;101661.39;107415;1253;109088;-60
2023/06/06 01:11:26;;;;;;;15.00;1.70;;;;;;;16.23;42.30;101659.04;107434;1257;107103;-59
2023/06/06 01:14:18;;;;;;;10.10;2.50;;;;;;;16.18;42.29;101661.55;107296;1253;97838;-60
2023/06/06 01:16:52;;;;;;;8.50;1.70;;;;;;;16.16;42.46;101661.77;107412;1254;98549;-60
2023/06/06 01:19:27;;;;;;;7.50;1.30;;;;;;;16.16;42.36;101659.25;107378;1254;111767;-60
2023/06/06 01:21:57;;;;;;;5.00;2.00;;;;;;;16.16;42.39;101660.13;107423;1254;108399;-61
2023/06/06 01:24:27;;;;;;;6.90;1.40;;;;;;;16.15;42.35;101662.03;107423;1254;106641;-70
2023/06/06 01:26:56;;;;;;;2.00;1.40;;;;;;;16.14;42.45;101665.16;107276;1259;97870;-69
2023/06/06 01:29:25;;;;;;;8.00;1.40;;;;;;;16.09;42.48;101663.99;107438;1254;98354;-71
2023/06/06 01:32:00;;;;;;;2.60;1.50;;;;;;;16.01;42.16;101664.54;107444;1254;111505;-68
2023/06/06 01:35:04;;;;;;;6.50;1.80;;;;;;;15.98;42.09;101668.23;107332;1255;109608;-67
2023/06/06 01:37:40;;;;;;;6.00;1.80;;;;;;;15.97;42.37;101664.84;107156;1254;108792;-67
2023/06/06 01:40:10;;;;;;;9.20;1.90;;;;;;;15.94;42.38;101668.23;107451;1253;97815;-66
2023/06/06 01:42:46;;;;;;;4.50;1.30;;;;;;;15.93;42.18;101667.56;107454;1254;97887;-68
2023/06/06 01:45:20;;;;;;;4.20;1.50;;;;;;;15.92;42.14;101666.18;107378;1254;111738;-68
2023/06/06 01:47:50;;;;;;;5.50;1.60;;;;;;;15.91;42.13;101667.52;107322;1254;110186;-67
2023/06/06 01:50:20;;;;;;;5.10;1.80;;;;;;;15.91;42.18;101668.54;107266;1259;107657;-70
2023/06/06 01:52:48;;;;;;;3.90;1.40;;;;;;;15.89;42.26;101666.68;107456;1254;97697;-65
2023/06/06 01:55:16;;;;;;;7.00;1.80;;;;;;;15.87;42.22;101670.87;107233;1256;97728;-70
2023/06/06 01:57:44;;;;;;;3.30;1.60;;;;;;;15.85;42.42;101674.73;107359;1255;111816;-70
2023/06/06 02:00:15;;;;;;;9.50;1.60;;;;;;;15.83;42.55;101681.58;107323;1254;110096;-68
2023/06/06 02:02:43;;;;;;;4.40;1.50;;;;;;;15.79;42.60;101679.95;107293;1254;108307;-66
2023/06/06 02:05:12;;;;;;;11.50;1.40;;;;;;;15.75;42.68;101677.96;107425;1254;97899;-67
2023/06/06 02:07:41;;;;;;;4.30;1.70;;;;;;;15.71;42.67;101678.18;107337;1254;98507;-68
2023/06/06 02:10:10;;;;;;;9.20;2.30;;;;;;;15.67;43.10;101686.30;107414;1254;111426;-68
2023/06/06 02:12:38;;;;;;;11.10;2.00;;;;;;;15.63;43.14;101683.25;107460;1254;109673;-71
2023/06/06 02:15:07;;;;;;;11.60;2.20;;;;;;;15.61;43.22;101686.74;107313;1254;107226;-67
2023/06/06 02:17:37;;;;;;;11.70;2.00;;;;;;;15.58;43.15;101688.95;107445;1257;97909;-67
2023/06/06 02:20:09;;;;;;;5.70;1.50;;;;;;;15.57;43.18;101695.05;107432;1254;98341;-66
2023/06/06 02:22:38;;;;;;;2.60;1.30;;;;;;;15.56;43.10;101691.15;107446;1258;110869;-68
2023/06/06 02:25:08;;;;;;;8.60;1.40;;;;;;;15.56;43.03;101685.05;107298;1254;109151;-70
2023/06/06 02:27:36;;;;;;;12.70;2.00;;;;;;;15.55;43.02;101687.48;107447;1254;108588;-69
2023/06/06 02:30:10;;;;;;;4.00;1.70;;;;;;;15.54;43.22;101688.85;107420;1257;97819;-68
2023/06/06 02:32:39;;;;;;;9.90;2.20;;;;;;;15.53;43.28;101687.34;107447;1253;97698;-68
2023/06/06 02:35:09;;;;;;;11.50;2.10;;;;;;;15.51;43.29;101692.36;107400;1257;112047;-67
2023/06/06 02:37:38;;;;;;;14.50;2.10;;;;;;;15.50;43.47;101694.96;107331;1253;109674;-67
2023/06/06 02:40:10;;;;;;;13.10;2.50;;;;;;;15.48;43.55;101691.17;107199;1257;108309;-68
2023/06/06 02:42:39;;;;;;;8.30;1.90;;;;;;;15.50;43.31;101690.68;107418;1254;97826;-68
2023/06/06 02:45:10;;;;;;;7.60;1.60;;;;;;;15.50;43.43;101690.09;107467;1254;97707;-67
2023/06/06 02:47:38;;;;;;;7.60;2.40;;;;;;;15.50;43.55;101692.66;107497;1254;110446;-69
2023/06/06 02:50:10;;;;;;;7.10;1.50;;;;;;;15.49;43.98;101693.95;107452;1254;108322;-68
2023/06/06 02:52:40;;;;;;;9.90;2.30;;;;;;;15.47;44.07;101694.58;107297;1253;107719;-68
2023/06/06 02:55:09;;;;;;;7.20;1.80;;;;;;;15.44;44.17;101689.58;107445;1254;97810;-67
2023/06/06 02:57:38;;;;;;;10.30;1.80;;;;;;;15.43;44.43;101693.11;107478;1257;99065;-68
2023/06/06 03:00:08;;;;;;;7.30;2.20;;;;;;;15.42;44.67;101691.72;107329;1254;111102;-68
2023/06/06 03:02:36;;;;;;;7.50;1.80;;;;;;;15.39;44.93;101692.05;107504;1253;108548;-68
2023/06/06 03:05:06;;;;;;;7.90;1.70;;;;;;;15.37;44.74;101690.98;107348;1257;108154;-68
2023/06/06 03:07:37;;;;;;;10.20;1.60;;;;;;;15.38;44.75;101693.05;107343;1254;97864;-67
2023/06/06 03:10:06;;;;;;;6.90;1.40;;;;;;;15.41;44.71;101691.52;107490;1254;97909;-67
2023/06/06 03:12:39;;;;;;;11.30;1.70;;;;;;;15.44;44.91;101691.55;107231;1254;111270;-68
2023/06/06 03:15:08;;;;;;;23.00;2.70;;;;;;;15.49;44.70;101693.96;107319;1254;109537;-67
2023/06/06 03:17:41;;;;;;;21.60;2.40;;;;;;;15.55;45.08;101692.90;107465;1254;108870;-68
2023/06/06 03:20:13;;;;;;;11.50;1.90;;;;;;;15.61;44.91;101689.65;107521;1254;97816;-68
2023/06/06 03:22:44;;;;;;;18.20;2.70;;;;;;;15.65;44.90;101687.56;107497;1254;97841;-71
2023/06/06 03:25:13;;;;;;;18.80;2.30;;;;;;;15.70;44.86;101686.84;107481;1254;113182;-72
2023/06/06 03:27:43;;;;;;;19.00;3.30;;;;;;;15.73;44.93;101686.30;107317;1254;109723;-68
2023/06/06 03:30:13;;;;;;;15.50;2.30;;;;;;;15.77;44.93;101686.61;107214;1261;107616;-68
2023/06/06 03:32:42;;;;;;;18.00;2.40;;;;;;;15.80;45.06;101690.17;107384;1257;97912;-68
2023/06/06 03:35:14;;;;;;;19.40;2.70;;;;;;;15.85;44.87;101690.06;107382;1257;99521;-69
2023/06/06 03:37:43;;;;;;;14.70;2.20;;;;;;;15.90;45.00;101692.98;107289;1255;112568;-67
2023/06/06 03:40:12;;;;;;;19.60;1.90;;;;;;;15.94;44.82;101692.23;107300;1254;110017;-68
2023/06/06 03:42:41;;;;;;;23.50;2.20;;;;;;;16.02;44.78;101695.35;107466;1254;108123;-66
2023/06/06 03:45:10;;;;;;;20.00;2.30;;;;;;;16.08;44.51;101693.98;107458;1254;97817;-66
2023/06/06 03:47:40;;;;;;;11.70;2.20;;;;;;;16.15;44.46;101696.58;107452;1254;97818;-67
2023/06/06 03:50:10;;;;;;;17.50;5.40;;;;;;;16.21;44.84;101694.94;107298;1254;112223;-68
2023/06/06 03:52:40;;;;;;;25.80;3.20;;;;;;;16.27;44.65;101694.52;107458;1254;110190;-70
2023/06/06 03:55:09;;;;;;;15.80;2.80;;;;;;;16.32;44.43;101696.25;107417;1254;108941;-68
2023/06/06 03:57:38;;;;;;;12.70;2.70;;;;;;;16.35;44.43;101699.48;107487;1254;97915;-67
2023/06/06 04:00:13;;;;;;;25.40;3.40;;;;;;;16.35;44.41;101697.67;107358;1254;98331;-68
2023/06/06 04:02:46;;;;;;;14.30;3.00;;;;;;;16.39;44.35;101700.22;107487;1253;112157;-69
2023/06/06 04:05:16;;;;;;;12.90;3.00;;;;;;;16.42;44.24;101700.66;107323;1254;108835;-67
2023/06/06 04:08:02;;;;;;;13.50;2.40;;;;;;;16.45;44.37;101698.95;107296;1254;108121;-66
2023/06/06 04:10:32;;;;;;;16.20;3.30;;;;;;;16.46;44.47;101701.68;107404;1254;97830;-67
2023/06/06 04:13:03;;;;;;;17.00;2.60;;;;;;;16.49;44.25;101702.27;107438;1254;97815;-69
2023/06/06 04:15:34;;;;;;;20.80;3.30;;;;;;;16.53;44.38;101702.11;107304;1254;112137;-69
2023/06/06 04:18:05;;;;;;;20.50;4.90;;;;;;;16.55;44.45;101700.20;107297;1257;109639;-66
2023/06/06 04:20:33;;;;;;;30.00;5.10;;;;;;;16.57;44.73;101700.73;107403;1254;107750;-66
2023/06/06 04:23:01;;;;;;;20.70;3.30;;;;;;;16.60;44.64;101703.02;107268;1254;97838;-66
2023/06/06 04:25:30;;;;;;;23.70;2.70;;;;;;;16.63;44.72;101700.44;107444;1254;97825;-66
2023/06/06 04:28:00;;;;;;;21.60;3.10;;;;;;;16.65;44.41;101703.48;107414;1254;113313;-68
2023/06/06 04:30:32;;;;;;;24.00;3.30;;;;;;;16.67;44.49;101706.84;107454;1254;110189;-68
2023/06/06 04:33:02;;;;;;;26.70;3.20;;;;;;;16.70;44.66;101709.66;107445;1258;107636;-67
2023/06/06 04:35:31;;;;;;;12.60;2.60;;;;;;;16.73;44.49;101709.52;107457;1254;97831;-70
2023/06/06 04:38:02;;;;;;;23.60;3.70;;;;;;;16.75;44.65;101711.38;107468;1254;97822;-68
2023/06/06 04:40:32;;;;;;;16.50;2.90;;;;;;;16.75;44.75;101709.36;107428;1254;111946;-68
2023/06/06 04:43:25;;;;;;;18.30;4.00;;;;;;;16.75;45.01;101710.45;107392;1254;109204;-67
2023/06/06 04:45:53;;;;;;;53.60;5.50;;;;;;;16.80;44.93;101712.15;107167;1261;107797;-71
2023/06/06 04:48:25;;;;;;;49.80;5.10;;;;;;;16.84;44.72;101714.04;107463;1254;97912;-72
2023/06/06 04:50:55;;;;;;;20.10;3.50;;;;;;;16.90;44.85;101712.58;107470;1254;97742;-69
2023/06/06 04:53:25;;;;;;;26.60;3.60;;;;;;;16.97;44.88;101713.38;107427;1254;112150;-67
2023/06/06 04:55:56;;;;;;;30.50;2.70;;;;;;;17.02;44.77;101711.96;107448;1254;109834;-66
2023/06/06 04:58:25;;;;;;;16.10;2.50;;;;;;;17.03;44.76;101715.30;107390;1254;108160;-67
2023/06/06 05:00:57;;;;;;;21.90;2.60;;;;;;;17.06;44.77;101715.34;107383;1254;97834;-67
2023/06/06 05:03:27;;;;;;;41.00;4.80;;;;;;;17.10;45.19;101714.19;107422;1258;99603;-67
2023/06/06 05:05:56;;;;;;;26.70;4.00;;;;;;;17.15;45.67;101711.88;107303;1254;111983;-70
2023/06/06 05:08:41;;;;;;;12.30;2.60;;;;;;;17.20;45.45;101707.20;107404;1254;110300;-69
2023/06/06 05:11:11;;;;;;;18.60;3.10;;;;;;;17.30;45.35;101705.34;107417;1254;108018;-68
2023/06/06 05:13:39;;;;;;;10.40;2.50;;;;;;;17.38;45.09;101709.78;107376;1254;97822;-70
2023/06/06 05:16:08;;;;;;;32.70;6.60;;;;;;;17.45;45.02;101712.09;107409;1254;97823;-71
2023/06/06 05:18:36;;;;;;;16.50;3.80;;;;;;;17.52;44.83;101709.35;107450;1254;112234;-67
2023/06/06 05:21:05;;;;;;;16.50;3.20;;;;;;;17.61;44.78;101711.31;107402;1254;109985;-68
2023/06/06 05:23:34;;;;;;;29.40;5.00;;;;;;;17.72;44.73;101714.95;107402;1254;108311;-68
2023/06/06 05:26:02;;;;;;;23.30;3.80;;;;;;;17.79;44.68;101711.18;107438;1254;97806;-69
2023/06/06 05:28:31;;;;;;;25.60;4.10;;;;;;;17.86;44.49;101711.18;107392;1254;98423;-69
2023/06/06 05:31:00;;;;;;;20.00;3.90;;;;;;;17.95;44.25;101707.85;107450;1254;111171;-68
2023/06/06 05:33:32;;;;;;;26.70;3.40;;;;;;;18.04;44.05;101704.91;107105;1257;109339;-68
2023/06/06 05:36:03;;;;;;;12.30;3.20;;;;;;;18.13;43.96;101704.11;107320;1254;108275;-70
2023/06/06 05:38:31;;;;;;;10.70;3.10;;;;;;;18.24;43.69;101704.98;107415;1254;97911;-66
2023/06/06 05:41:00;;;;;;;18.40;3.20;;;;;;;18.36;43.09;101708.77;107347;1259;98373;-68
2023/06/06 05:43:30;;;;;;;17.20;3.60;;;;;;;18.49;42.68;101711.25;107326;1254;111764;-67
2023/06/06 05:46:01;;;;;;;13.90;2.90;;;;;;;18.62;41.48;101713.09;107399;1254;109928;-70
2023/06/06 05:48:30;;;;;;;9.90;2.20;;;;;;;18.76;41.07;101710.33;107415;1254;108343;-68
2023/06/06 05:50:58;;;;;;;19.20;3.00;;;;;;;18.88;40.60;101710.33;107419;1254;97924;-66
2023/06/06 05:53:28;;;;;;;8.50;2.80;;;;;;;19.01;40.58;101710.90;107433;1254;97741;-67
2023/06/06 05:55:56;;;;;;;19.10;3.20;;;;;;;19.16;40.06;101715.66;107466;1254;112154;-69
2023/06/06 05:58:25;;;;;;;13.70;3.80;;;;;;;19.28;39.48;101709.77;107428;1254;109869;-69
2023/06/06 06:00:53;;;;;;;13.50;3.00;;;;;;;19.40;39.66;101708.65;107427;1254;107606;-69
2023/06/06 06:03:21;;;;;;;12.20;3.40;;;;;;;19.53;39.81;101710.08;107466;1254;97831;-68
2023/06/06 06:05:50;;;;;;;13.30;3.30;;;;;;;19.66;39.90;101712.20;107480;1254;99488;-68
2023/06/06 06:08:18;;;;;;;6.90;2.90;;;;;;;19.80;38.93;101713.13;107468;1254;111993;-69
2023/06/06 06:10:47;;;;;;;13.00;3.10;;;;;;;19.93;38.72;101715.65;107362;1254;108743;-69
2023/06/06 06:13:15;;;;;;;16.80;2.80;;;;;;;20.09;37.01;101713.23;107291;1254;108264;-69
2023/06/06 06:15:43;;;;;;;13.00;3.20;;;;;;;20.28;34.91;101716.55;107465;1254;97845;-67
2023/06/06 06:18:11;;;;;;;13.60;3.30;;;;;;;20.46;33.72;101716.48;107312;1254;97802;-66
2023/06/06 06:20:40;;;;;;;10.00;2.80;;;;;;;20.62;34.41;101713.95;107463;1259;111299;-66
2023/06/06 06:23:08;;;;;;;6.00;2.60;;;;;;;20.81;33.56;101716.26;107335;1254;108775;-68
2023/06/06 06:25:37;;;;;;;7.60;3.10;;;;;;;20.98;33.66;101716.92;107482;1254;108612;-66
2023/06/06 06:28:17;;;;;;;11.50;2.50;;;;;;;21.14;33.64;101716.92;107500;1254;97786;-67
2023/06/06 06:30:46;;;;;;;12.40;2.60;;;;;;;21.33;33.00;101724.17;107524;1257;97729;-67
2023/06/06 06:33:15;;;;;;;5.60;2.50;;;;;;;21.49;32.64;101717.69;107292;1255;111956;-69
2023/06/06 06:35:44;;;;;;;6.80;3.10;;;;;;;21.62;31.99;101717.32;107497;1254;108490;-67
2023/06/06 06:38:12;;;;;;;12.40;2.40;;;;;;;21.70;31.97;101711.34;107323;1254;107598;-67
2023/06/06 06:40:40;;;;;;;6.60;2.70;;;;;;;21.76;31.87;101717.58;107482;1254;97883;-68
2023/06/06 06:43:09;;;;;;;11.50;2.60;;;;;;;21.84;31.56;101717.40;107480;1259;97806;-68
2023/06/06 06:45:47;;;;;;;12.00;3.10;;;;;;;21.88;31.65;101714.10;107505;1254;111336;-69
2023/06/06 06:48:15;;;;;;;10.70;3.40;;;;;;;21.94;31.58;101717.12;107505;1253;110368;-68
2023/06/06 06:50:45;;;;;;;11.80;3.00;;;;;;;22.00;31.51;101720.66;107425;1256;107765;-68
2023/06/06 06:53:13;;;;;;;10.40;3.50;;;;;;;22.06;31.39;101715.94;107486;1254;97819;-68
2023/06/06 06:55:44;;;;;;;17.60;3.70;;;;;;;22.13;31.51;101721.31;107478;1254;99127;-73
2023/06/06 06:58:25;;;;;;;11.10;2.90;;;;;;;22.20;31.35;101717.14;107458;1254;112243;-72
2023/06/06 07:00:54;;;;;;;9.00;2.50;;;;;;;22.27;31.05;101715.55;107483;1253;109869;-69
2023/06/06 07:03:22;;;;;;;13.10;3.30;;;;;;;22.31;31.27;101717.96;107446;1254;108226;-70
2023/06/06 07:05:51;;;;;;;6.30;3.30;;;;;;;22.40;30.82;101722.44;107479;1254;97861;-69
2023/06/06 07:08:19;;;;;;;11.60;3.10;;;;;;;22.44;30.16;101717.70;107484;1254;98360;-67
2023/06/06 07:10:48;;;;;;;11.90;2.80;;;;;;;22.46;30.34;101716.36;107505;1254;110870;-69
2023/06/06 07:13:18;;;;;;;10.00;3.00;;;;;;;22.50;30.50;101721.85;107447;1254;109967;-67
2023/06/06 07:15:46;;;;;;;12.10;3.40;;;;;;;22.54;30.82;101717.73;107432;1255;108787;-67
2023/06/06 07:18:15;;;;;;;12.20;2.60;;;;;;;22.62;30.57;101724.23;107417;1254;97691;-67
2023/06/06 07:20:45;;;;;;;8.30;3.10;;;;;;;22.67;30.23;101721.98;107460;1259;97703;-68
2023/06/06 07:23:14;;;;;;;8.60;3.20;;;;;;;22.74;29.49;101731.19;107484;1254;110825;-67
2023/06/06 07:25:42;;;;;;;10.60;2.50;;;;;;;22.76;29.34;101729.66;107459;1254;109202;-69
2023/06/06 07:28:13;;;;;;;9.90;3.50;;;;;;;22.81;29.94;101729.80;107279;1257;108659;-68
2023/06/06 07:30:41;;;;;;;14.10;2.90;;;;;;;22.94;29.55;101725.95;107418;1254;97822;-68
2023/06/06 07:33:10;;;;;;;7.80;2.90;;;;;;;23.07;29.43;101729.01;107479;1259;97822;-67
2023/06/06 07:35:38;;;;;;;12.20;2.70;;;;;;;23.19;29.40;101718.19;107484;1254;111000;-68
2023/06/06 07:38:07;;;;;;;10.10;3.10;;;;;;;23.33;29.01;101722.60;107498;1259;108838;-68
2023/06/06 07:40:35;;;;;;;9.60;2.80;;;;;;;23.45;29.38;101722.05;107274;1257;107238;-70
2023/06/06 07:43:03;;;;;;;11.70;2.70;;;;;;;23.61;29.22;101725.30;107453;1254;98610;-69
2023/06/06 07:45:31;;;;;;;11.10;2.80;;;;;;;23.74;28.80;101724.30;107490;1254;97829;-68
2023/06/06 07:48:03;;;;;;;18.40;2.90;;;;;;;23.85;29.02;101717.64;107490;1254;110884;-67
2023/06/06 07:50:31;;;;;;;8.80;2.30;;;;;;;23.97;28.35;101722.23;107474;1254;108747;-69
2023/06/06 07:53:00;;;;;;;3.60;2.50;;;;;;;24.07;28.75;101725.00;107472;1254;108178;-68
2023/06/06 07:55:30;;;;;;;11.50;2.10;;;;;;;24.23;28.39;101721.75;107457;1257;97902;-70
2023/06/06 07:58:01;;;;;;;11.40;2.50;;;;;;;24.34;27.67;101724.11;107312;1259;98077;-70
2023/06/06 08:00:29;;;;;;;15.30;2.40;;;;;;;24.43;27.95;101724.31;107495;1254;110335;-72
2023/06/06 08:02:58;;;;;;;10.00;2.40;;;;;;;24.53;27.44;101722.91;106988;1258;657189;-67
2023/06/06 08:05:28;;;;;;;7.60;2.30;;;;;;;24.63;27.69;101721.55;107421;1255;109730;-68
2023/06/06 08:07:56;;;;;;;10.40;2.40;;;;;;;24.76;26.74;101725.73;107439;1254;97850;-67
2023/06/06 08:10:25;;;;;;;44.90;3.60;;;;;;;24.83;26.32;101721.93;107481;1254;97921;-67
2023/06/06 08:12:53;;;;;;;9.90;2.30;;;;;;;24.83;25.93;101717.55;107420;1254;111759;-69
2023/06/06 08:15:22;;;;;;;10.40;2.20;;;;;;;24.80;25.63;101720.23;107440;1259;110000;-68
2023/06/06 08:17:50;;;;;;;7.30;2.20;;;;;;;24.73;26.26;101714.50;107319;1259;107677;-67
2023/06/06 08:20:19;;;;;;;3.60;2.00;;;;;;;24.72;25.89;101716.44;107372;1258;97821;-68
2023/06/06 08:22:51;;;;;;;11.50;2.50;;;;;;;24.69;26.01;101714.36;107497;1257;97686;-67
2023/06/06 08:25:20;;;;;;;14.50;2.10;;;;;;;24.72;26.09;101713.39;107495;1254;111390;-69
2023/06/06 08:27:48;;;;;;;8.20;2.30;;;;;;;24.73;26.14;101714.24;107414;1259;110295;-68
2023/06/06 08:30:16;;;;;;;8.70;2.30;;;;;;;24.75;26.03;101714.67;107512;1254;107632;-68
2023/06/06 08:32:45;;;;;;;14.50;2.40;;;;;;;24.78;25.90;101718.52;107438;1260;97845;-67
2023/06/06 08:35:13;;;;;;;11.60;2.00;;;;;;;24.79;25.62;101713.57;107487;1255;97896;-72
2023/06/06 08:37:42;;;;;;;4.90;1.60;;;;;;;24.79;25.72;101707.09;107421;1254;111507;-67
2023/06/06 08:40:11;;;;;;;9.90;2.10;;;;;;;24.78;25.73;101703.52;107474;1257;109131;-69
2023/06/06 08:42:51;;;;;;;10.50;2.40;;;;;;;24.83;26.17;101699.74;107445;1259;106794;-66
2023/06/06 08:45:22;;;;;;;5.20;2.00;;;;;;;24.88;26.02;101695.69;107445;1254;98330;-67
2023/06/06 08:47:54;;;;;;;8.50;2.40;;;;;;;24.93;25.69;101692.61;107422;1257;97828;-67
2023/06/06 08:50:22;;;;;;;5.60;1.70;;;;;;;24.93;25.82;101688.79;107158;1254;111549;-67
2023/06/06 08:52:52;;;;;;;11.70;2.10;;;;;;;25.03;25.80;101693.92;107430;1253;109705;-68
2023/06/06 08:55:21;;;;;;;3.90;2.00;;;;;;;25.10;25.65;101690.77;107450;1258;107351;-68
2023/06/06 08:57:50;;;;;;;4.90;2.00;;;;;;;25.18;25.39;101686.56;107266;1254;97855;-73
2023/06/06 09:00:21;;;;;;;7.30;2.20;;;;;;;25.28;25.31;101683.81;107469;1255;97787;-69
2023/06/06 09:02:54;;;;;;;7.00;2.20;;;;;;;25.42;25.32;101678.83;107472;1259;112398;-71
2023/06/06 09:05:23;;;;;;;12.50;2.00;;;;;;;25.59;24.93;101672.20;107432;1259;111382;-68
2023/06/06 09:07:55;;;;;;;16.00;2.50;;;;;;;25.78;24.42;101676.98;107368;1254;108380;-67
2023/06/06 09:10:24;;;;;;;14.00;2.20;;;;;;;25.92;23.88;101673.51;107377;1257;97933;-67
2023/06/06 09:12:54;;;;;;;7.60;2.40;;;;;;;26.06;23.90;101664.10;107398;1254;97794;-68
2023/06/06 09:15:25;;;;;;;8.70;1.70;;;;;;;26.27;23.71;101660.98;107422;1255;111567;-70
2023/06/06 09:17:54;;;;;;;5.10;1.80;;;;;;;26.49;23.76;101657.75;107411;1257;110220;-67
2023/06/06 09:20:25;;;;;;;11.10;2.50;;;;;;;26.82;23.79;101651.27;107404;1260;107821;-68
2023/06/06 09:22:57;;;;;;;23.20;2.60;;;;;;;27.13;23.23;101645.77;107395;1254;97804;-68
2023/06/06 09:25:27;;;;;;;24.70;3.20;;;;;;;27.38;22.73;101648.30;107428;1255;97701;-68
2023/06/06 09:28:03;;;;;;;12.60;2.30;;;;;;;27.54;22.58;101646.12;107412;1259;112255;-71
2023/06/06 09:30:32;;;;;;;17.20;2.60;;;;;;;27.74;22.20;101643.36;107420;1258;109614;-67
2023/06/06 09:33:04;;;;;;;8.80;2.00;;;;;;;27.94;22.19;101644.95;107453;1254;108148;-68
2023/06/06 09:35:35;;;;;;;9.40;1.90;;;;;;;28.22;22.03;101647.47;107404;1254;97825;-68
2023/06/06 09:38:18;;;;;;;3.30;1.60;;;;;;;28.47;21.46;101643.00;107436;1258;97725;-67
2023/06/06 09:40:52;;;;;;;12.40;1.90;;;;;;;28.72;21.56;101644.51;107406;1254;111387;-68
2023/06/06 09:43:25;;;;;;;6.40;1.90;;;;;;;28.96;21.49;101644.36;107434;1254;110013;-67
2023/06/06 09:45:58;;;;;;;7.10;1.80;;;;;;;29.16;21.25;101639.63;107473;1254;108631;-67
2023/06/06 09:48:28;;;;;;;6.20;2.00;;;;;;;29.32;20.67;101639.15;107423;1254;97784;-68
2023/06/06 09:50:57;;;;;;;31.10;3.50;;;;;;;29.36;20.54;101634.48;107516;1254;98379;-67
2023/06/06 09:53:28;;;;;;;16.20;2.70;;;;;;;29.47;20.83;101633.41;107382;1258;111159;-68
2023/06/06 09:56:03;;;;;;;20.10;2.00;;;;;;;29.61;20.73;101640.02;107264;1260;108909;-69
2023/06/06 09:58:34;;;;;;;57.90;6.30;;;;;;;29.72;19.82;101635.88;107344;1254;108564;-67
2023/06/06 10:01:04;;;;;;;12.70;2.20;;;;;;;29.80;20.12;101633.50;107405;1259;97821;-71
2023/06/06 10:03:37;;;;;;;5.00;1.50;;;;;;;30.09;20.11;101634.29;107405;1257;97920;-69
2023/06/06 10:06:07;;;;;;;9.50;2.50;;;;;;;30.36;19.87;101630.70;107379;1254;111477;-66
2023/06/06 10:08:38;;;;;;;11.30;2.10;;;;;;;30.51;19.66;101628.23;107446;1254;108207;-68
2023/06/06 10:11:08;;;;;;;6.30;1.90;;;;;;;30.76;19.44;101624.00;107451;1257;107745;-69
2023/06/06 10:13:37;;;;;;;15.60;1.70;;;;;;;30.97;19.01;101628.61;107358;1254;97819;-67
2023/06/06 10:16:08;;;;;;;12.90;2.00;;;;;;;31.07;19.13;101624.17;107262;1254;97874;-68
2023/06/06 10:18:41;;;;;;;8.30;1.90;;;;;;;31.29;18.72;101618.63;107355;1254;111378;-66
2023/06/06 10:21:10;;;;;;;3.30;1.80;;;;;;;31.59;18.27;101613.33;107408;1254;109707;-70
2023/06/06 10:23:38;;;;;;;5.80;1.70;;;;;;;31.91;18.64;101601.35;107334;1260;108691;-68
2023/06/06 10:26:15;;;;;;;3.90;1.80;;;;;;;32.38;18.30;101606.65;107376;1259;97889;-69
2023/06/06 10:29:05;;;;;;;6.90;2.00;;;;;;;32.64;17.91;101597.31;107453;1254;97803;-69
2023/06/06 10:31:48;;;;;;;8.90;2.30;;;;;;;33.01;17.98;101600.97;107498;1254;112697;-69
2023/06/06 10:34:21;;;;;;;16.90;3.20;;;;;;;33.13;17.62;101592.09;107479;1254;108993;-67
2023/06/06 10:36:49;;;;;;;14.30;2.10;;;;;;;33.27;17.66;101596.12;107354;1254;107576;-67
2023/06/06 10:39:28;;;;;;;13.50;2.20;;;;;;;33.41;17.35;101590.53;107435;1254;97816;-67
2023/06/06 10:42:05;;;;;;;9.30;1.90;;;;;;;33.49;16.96;101592.46;107475;1254;97709;-67
2023/06/06 10:44:53;;;;;;;16.30;1.70;;;;;;;33.52;17.29;101591.36;107448;1254;111701;-67
2023/06/06 10:47:27;;;;;;;6.70;1.70;;;;;;;33.91;17.12;101583.95;107465;1257;108509;-67
2023/06/06 10:50:02;;;;;;;5.70;1.60;;;;;;;34.26;17.13;101572.64;107320;1254;109097;-66
2023/06/06 10:52:31;;;;;;;14.50;1.90;;;;;;;34.55;16.59;101573.06;107424;1255;97796;-67
2023/06/06 10:54:59;;;;;;;9.40;2.30;;;;;;;34.67;16.56;101567.09;107493;1254;98424;-65
2023/06/06 10:57:27;;;;;;;3.80;1.80;;;;;;;34.95;16.78;101562.71;107272;1253;112393;-70
2023/06/06 10:59:55;;;;;;;7.80;1.60;;;;;;;35.11;16.15;101563.02;107454;1254;109905;-67
2023/06/06 11:02:33;;;;;;;8.10;1.80;;;;;;;35.13;16.12;101562.46;107407;1254;108382;-71
2023/06/06 11:05:04;;;;;;;6.10;2.50;;;;;;;35.10;16.21;101562.64;107390;1254;97815;-73
2023/06/06 11:07:32;;;;;;;5.90;1.70;;;;;;;34.87;15.80;101562.10;107469;1254;97777;-68
2023/06/06 11:10:01;;;;;;;12.50;2.10;;;;;;;34.31;15.94;101563.10;107475;1254;112181;-67
2023/06/06 11:12:30;;;;;;;13.10;2.10;;;;;;;33.60;15.95;101565.70;107443;1258;109997;-66
2023/06/06 11:15:06;;;;;;;5.70;1.50;;;;;;;33.00;16.33;101566.13;107426;1257;108024;-67
2023/06/06 11:17:46;;;;;;;6.10;1.90;;;;;;;32.48;16.86;101560.63;107421;1254;97902;-68
2023/06/06 11:20:21;;;;;;;11.80;1.80;;;;;;;32.29;17.43;101556.52;107490;1254;97713;-68
2023/06/06 11:23:01;;;;;;;12.60;2.50;;;;;;;32.19;17.55;101558.51;107419;1254;110459;-66